Time;durP1;ratioP1;P1;durP2;ratioP2;P2;SDS_P1;SDS_P2;PMS_P1;PMS_P2;Temp;Humidity;BMP_temperature;BMP_pressure;BME280_temperature;BME280_humidity;BME280_pressure;Samples;Min_cycle;Max_cycle;Signal;HPM_P1;HPM_P2
2022/07/10 00:01:09;;;;;;;14.48;11.02;;;;;;;19.71;99.92;99028.34;5078577;28;20098;-41
2022/07/10 00:03:35;;;;;;;15.52;11.30;;;;;;;19.73;100.00;99032.50;5099611;28;20039;-42
2022/07/10 00:06:01;;;;;;;15.13;11.70;;;;;;;19.69;100.00;99032.88;5078532;28;20039;-41
2022/07/10 00:08:27;;;;;;;11.68;9.18;;;;;;;19.64;100.00;99038.53;5096109;28;20126;-41
2022/07/10 00:10:53;;;;;;;11.93;9.95;;;;;;;19.54;100.00;99023.59;5096261;28;20225;-41
2022/07/10 00:13:19;;;;;;;11.40;10.30;;;;;;;19.51;100.00;99027.34;5096042;28;20036;-41
2022/07/10 00:15:45;;;;;;;12.15;9.10;;;;;;;19.53;100.00;99046.50;5096534;28;20070;-42
2022/07/10 00:18:11;;;;;;;13.52;10.50;;;;;;;19.45;100.00;99041.00;5095801;28;20062;-40
2022/07/10 00:20:38;;;;;;;12.70;8.65;;;;;;;19.37;100.00;99032.84;5082022;28;20073;-41
2022/07/10 00:23:04;;;;;;;10.25;8.10;;;;;;;19.37;100.00;99035.47;5096117;28;20055;-41
2022/07/10 00:25:30;;;;;;;10.75;7.90;;;;;;;19.31;100.00;99028.91;5096309;28;20104;-40
2022/07/10 00:27:56;;;;;;;11.65;8.98;;;;;;;19.34;100.00;99038.38;5096056;28;20059;-40
2022/07/10 00:30:22;;;;;;;15.35;9.02;;;;;;;19.36;100.00;99036.47;5096271;28;20043;-42
2022/07/10 00:32:47;;;;;;;13.15;9.88;;;;;;;19.37;100.00;99040.75;5095618;28;20606;-42
2022/07/10 00:35:13;;;;;;;15.18;10.00;;;;;;;19.35;100.00;99032.97;5096246;28;20048;-41
2022/07/10 00:37:39;;;;;;;14.50;10.20;;;;;;;19.27;100.00;99019.56;5096083;28;20064;-41
2022/07/10 00:40:06;;;;;;;13.57;11.15;;;;;;;19.35;100.00;99025.06;5093285;28;20071;-41
2022/07/10 00:42:32;;;;;;;14.30;10.52;;;;;;;19.34;100.00;99014.66;5092575;28;20368;-42
2022/07/10 00:44:57;;;;;;;14.80;10.65;;;;;;;19.31;100.00;99004.38;5074566;28;20106;-43
2022/07/10 00:47:23;;;;;;;13.93;10.88;;;;;;;19.33;100.00;99003.25;5092853;28;20508;-43
2022/07/10 00:49:49;;;;;;;13.52;10.55;;;;;;;19.23;100.00;98975.13;5074732;28;20066;-42
2022/07/10 00:52:17;;;;;;;16.00;11.05;;;;;;;19.33;100.00;98998.00;5092930;28;20036;-42
2022/07/10 00:54:44;;;;;;;17.90;11.63;;;;;;;19.35;100.00;99005.78;5092548;28;20044;-43
2022/07/10 00:57:11;;;;;;;15.18;11.63;;;;;;;19.35;100.00;99003.16;5092026;28;20085;-43
2022/07/10 00:59:37;;;;;;;13.73;10.77;;;;;;;19.35;100.00;99001.34;5074850;28;20118;-40
2022/07/10 01:02:04;;;;;;;15.98;12.25;;;;;;;19.37;100.00;99004.69;5092876;28;20048;-42
2022/07/10 01:04:30;;;;;;;17.90;12.88;;;;;;;19.37;100.00;99009.13;5071181;28;20051;-42
2022/07/10 01:06:56;;;;;;;16.90;12.88;;;;;;;19.39;100.00;99015.09;5054869;28;20038;-43
2022/07/10 01:09:22;;;;;;;16.55;12.90;;;;;;;19.33;100.00;98999.78;5087313;28;20126;-42
2022/07/10 01:11:48;;;;;;;18.73;12.82;;;;;;;19.33;100.00;98982.19;5074196;28;20044;-41
2022/07/10 01:14:15;;;;;;;17.77;12.25;;;;;;;19.43;100.00;98996.28;5074583;28;20044;-40
2022/07/10 01:16:41;;;;;;;18.20;13.38;;;;;;;19.47;100.00;98956.53;5092036;28;20046;-40
2022/07/10 01:19:07;;;;;;;17.42;13.88;;;;;;;19.47;100.00;98932.81;5092278;28;20039;-43
2022/07/10 01:21:34;;;;;;;14.25;9.13;;;;;;;19.45;100.00;98946.94;5092122;28;20075;-42
2022/07/10 01:24:05;;;;;;;14.30;6.85;;;;;;;19.39;100.00;98955.31;5091422;28;20427;-41
2022/07/10 01:26:30;;;;;;;11.57;7.55;;;;;;;19.28;100.00;98947.44;5073942;28;20497;-41
2022/07/10 01:28:56;;;;;;;8.52;7.15;;;;;;;19.25;100.00;98955.63;5091925;28;20130;-41
2022/07/10 01:31:26;;;;;;;10.57;7.82;;;;;;;19.20;100.00;98949.03;5073583;28;20408;-42
2022/07/10 01:33:56;;;;;;;11.82;8.73;;;;;;;19.13;100.00;98950.50;5091931;28;20052;-43
2022/07/10 01:36:22;;;;;;;13.75;9.10;;;;;;;19.06;100.00;98960.69;5077063;28;20042;-41
2022/07/10 01:38:51;;;;;;;12.13;8.80;;;;;;;19.01;100.00;98942.63;5040732;28;20063;-41
2022/07/10 01:41:17;;;;;;;11.75;8.40;;;;;;;18.99;100.00;98946.34;5091758;28;20050;-41
2022/07/10 01:43:44;;;;;;;12.20;7.30;;;;;;;18.79;100.00;98937.38;5072609;28;20044;-41
2022/07/10 01:46:11;;;;;;;10.70;9.00;;;;;;;18.94;100.00;98959.06;5072003;28;20028;-43
2022/07/10 01:48:38;;;;;;;13.48;9.27;;;;;;;18.92;100.00;98963.59;5091611;28;20047;-41
2022/07/10 01:51:05;;;;;;;12.10;8.63;;;;;;;18.89;100.00;98954.13;5072846;28;20123;-42
2022/07/10 01:53:31;;;;;;;10.43;8.30;;;;;;;18.89;100.00;98953.31;5091591;28;20052;-42
2022/07/10 01:55:56;;;;;;;11.48;8.52;;;;;;;18.89;100.00;98953.31;5072869;28;20036;-41
2022/07/10 01:58:33;;;;;;;14.32;9.02;;;;;;;18.91;100.00;98946.09;5073312;28;20051;-44
2022/07/10 02:00:59;;;;;;;13.93;9.52;;;;;;;18.76;100.00;98918.38;5090704;28;20518;-41
2022/07/10 02:06:09;;;;;;;12.63;8.43;;;;;;;18.90;100.00;98918.94;5091501;28;20035;-41
2022/07/10 02:08:34;;;;;;;10.95;8.85;;;;;;;18.90;100.00;98923.34;5091114;28;20055;-42
2022/07/10 02:11:00;;;;;;;16.60;9.57;;;;;;;18.87;100.00;98932.38;5091021;28;20511;-42
2022/07/10 02:13:27;;;;;;;10.60;9.30;;;;;;;18.86;100.00;98938.59;5073099;28;20044;-41
2022/07/10 02:15:54;;;;;;;12.32;9.50;;;;;;;18.85;100.00;98949.22;5091227;28;20090;-41
2022/07/10 02:18:20;;;;;;;13.63;9.07;;;;;;;18.83;100.00;98938.00;5072570;28;20405;-41
2022/07/10 02:20:46;;;;;;;9.82;8.45;;;;;;;18.73;100.00;98918.63;5072827;28;20044;-41
2022/07/10 02:23:12;;;;;;;8.20;6.35;;;;;;;18.76;100.00;98931.53;5072628;28;20539;-41
2022/07/10 02:25:38;;;;;;;12.90;8.40;;;;;;;18.85;100.00;98936.06;5090792;28;20518;-42
2022/07/10 02:28:04;;;;;;;9.80;6.97;;;;;;;18.87;100.00;98942.91;5091305;28;20059;-42
2022/07/10 02:30:31;;;;;;;8.85;6.97;;;;;;;18.82;100.00;98924.00;5073034;28;20052;-42
2022/07/10 02:32:57;;;;;;;8.25;7.15;;;;;;;18.93;100.00;98929.25;5090832;28;20105;-41
2022/07/10 02:35:23;;;;;;;10.82;7.70;;;;;;;18.99;100.00;98938.44;5090338;28;20043;-41
2022/07/10 02:37:49;;;;;;;8.80;7.50;;;;;;;19.05;100.00;98953.75;5090615;28;20044;-42
2022/07/10 02:40:15;;;;;;;12.88;6.90;;;;;;;19.05;100.00;98961.66;5090458;28;20044;-41
2022/07/10 02:42:40;;;;;;;9.27;6.97;;;;;;;19.08;98.15;98969.31;5090196;28;20047;-40
2022/07/10 02:45:07;;;;;;;11.18;7.25;;;;;;;19.03;96.92;98971.47;5056056;28;20036;-41
2022/07/10 02:47:33;;;;;;;12.32;7.40;;;;;;;18.90;95.77;98942.63;5090227;28;20120;-42
2022/07/10 02:49:59;;;;;;;11.25;7.20;;;;;;;19.07;95.31;98961.53;5068240;28;20631;-43
2022/07/10 02:52:25;;;;;;;10.18;7.47;;;;;;;19.14;94.70;98974.09;5090059;28;20123;-41
2022/07/10 02:54:51;;;;;;;11.98;6.70;;;;;;;19.20;94.95;98975.41;5090256;28;20047;-41
2022/07/10 02:57:17;;;;;;;11.48;7.28;;;;;;;19.22;94.19;98973.47;5090128;28;20047;-41
2022/07/10 02:59:43;;;;;;;9.02;6.07;;;;;;;19.24;93.29;98968.91;5090567;28;20044;-42
2022/07/10 03:02:08;;;;;;;8.68;6.57;;;;;;;19.18;91.88;98949.16;5089829;28;20039;-42
2022/07/10 03:04:34;;;;;;;10.32;5.63;;;;;;;19.48;90.86;98974.84;5090106;28;20186;-41
2022/07/10 03:07:00;;;;;;;7.40;5.72;;;;;;;19.58;89.08;98975.75;5090307;28;20066;-40
2022/07/10 03:09:26;;;;;;;12.90;6.18;;;;;;;19.71;88.70;98965.03;5071438;28;20121;-41
2022/07/10 03:11:52;;;;;;;8.13;5.95;;;;;;;19.84;87.86;98971.78;5088967;28;20512;-42
2022/07/10 03:14:18;;;;;;;11.63;6.38;;;;;;;19.96;88.10;98969.94;5071937;28;20178;-41
2022/07/10 03:16:44;;;;;;;8.55;6.10;;;;;;;20.09;88.44;98965.31;5090305;28;20511;-42
2022/07/10 03:19:10;;;;;;;13.70;6.40;;;;;;;20.17;88.54;98960.19;5089866;28;20498;-41
2022/07/10 03:21:36;;;;;;;6.82;6.10;;;;;;;20.23;88.37;98978.16;5090356;28;20109;-42
2022/07/10 03:24:01;;;;;;;10.82;5.88;;;;;;;20.26;88.02;98967.31;5096700;28;20050;-44
2022/07/10 03:26:29;;;;;;;10.02;6.40;;;;;;;20.35;87.79;98970.19;5104205;28;20461;-42
2022/07/10 03:28:55;;;;;;;8.75;6.15;;;;;;;20.41;88.48;98972.31;5090130;28;20155;-43
2022/07/10 03:31:22;;;;;;;9.02;6.63;;;;;;;20.46;88.05;98976.22;5090199;28;20537;-42
2022/07/10 03:33:48;;;;;;;9.55;6.93;;;;;;;20.54;87.64;98972.91;5090074;28;20040;-40
2022/07/10 03:36:13;;;;;;;10.88;6.10;;;;;;;20.56;86.97;98977.09;5071414;28;20123;-41
2022/07/10 03:38:39;;;;;;;9.60;6.40;;;;;;;20.62;86.10;98967.81;5089514;28;20044;-42
2022/07/10 03:41:05;;;;;;;9.05;6.35;;;;;;;20.53;86.48;98943.03;5089857;28;20047;-42
2022/07/10 03:43:31;;;;;;;8.70;6.18;;;;;;;20.69;86.52;98964.50;5072311;28;20482;-41
2022/07/10 03:45:58;;;;;;;7.63;5.85;;;;;;;20.75;85.69;98965.75;5089472;28;20089;-42
2022/07/10 03:48:24;;;;;;;9.95;6.50;;;;;;;20.79;85.34;98975.09;5089947;28;20066;-41
2022/07/10 03:50:51;;;;;;;10.48;6.95;;;;;;;20.82;84.18;98956.34;5089770;28;20567;-41
2022/07/10 03:53:17;;;;;;;7.88;6.10;;;;;;;20.90;83.58;98972.34;5089278;28;20048;-42
2022/07/10 03:55:43;;;;;;;8.02;6.28;;;;;;;20.93;84.09;98974.72;5089894;28;20118;-41
2022/07/10 03:58:08;;;;;;;8.68;6.70;;;;;;;20.96;83.98;98970.97;5089687;28;20417;-43
2022/07/10 04:00:37;;;;;;;8.18;6.30;;;;;;;20.95;83.46;98972.78;5089736;28;20527;-41
2022/07/10 04:03:06;;;;;;;12.45;6.35;;;;;;;20.97;82.88;98972.66;5089076;28;20136;-44
2022/07/10 04:05:32;;;;;;;9.30;5.70;;;;;;;20.87;82.27;98955.94;5089982;28;20039;-41
2022/07/10 04:07:58;;;;;;;6.65;5.55;;;;;;;20.98;82.70;98964.59;5086555;28;20040;-40
2022/07/10 04:13:19;;;;;;;7.35;5.10;;;;;;;21.07;81.73;98957.63;5075756;28;20051;-42
2022/07/10 04:15:45;;;;;;;8.13;5.78;;;;;;;21.13;81.24;98950.00;5092048;28;20044;-42
2022/07/10 04:18:11;;;;;;;8.85;5.65;;;;;;;21.12;81.35;98934.28;5093415;28;20044;-41
2022/07/10 04:20:36;;;;;;;8.90;5.68;;;;;;;21.25;81.31;98934.84;5093333;28;20039;-42
2022/07/10 04:23:02;;;;;;;7.85;5.70;;;;;;;21.29;81.41;98931.00;5092916;28;20048;-40
2022/07/10 04:25:28;;;;;;;5.55;4.55;;;;;;;21.34;79.76;98930.56;5093504;28;20140;-41
2022/07/10 04:27:54;;;;;;;8.57;5.07;;;;;;;21.37;77.91;98936.41;5093137;28;20040;-42
2022/07/10 04:30:20;;;;;;;6.10;4.90;;;;;;;21.36;77.85;98925.97;5093481;28;20051;-43
2022/07/10 04:32:46;;;;;;;7.80;4.75;;;;;;;21.51;76.52;98930.69;5095924;28;20130;-42
2022/07/10 04:35:11;;;;;;;6.28;4.50;;;;;;;21.60;75.44;98939.63;5092785;28;20558;-41
2022/07/10 04:37:37;;;;;;;5.47;4.75;;;;;;;21.69;75.45;98922.06;5080418;28;20122;-41
2022/07/10 04:40:05;;;;;;;6.60;5.15;;;;;;;21.78;74.74;98927.31;5093046;28;20086;-44
2022/07/10 04:42:31;;;;;;;6.68;4.82;;;;;;;21.87;74.37;98921.19;5092558;28;20071;-41
2022/07/10 04:44:56;;;;;;;7.00;5.55;;;;;;;21.97;74.37;98931.78;5074995;28;20060;-42
2022/07/10 04:47:22;;;;;;;6.18;5.57;;;;;;;22.07;73.41;98929.13;5092767;28;20544;-42
2022/07/10 04:49:48;;;;;;;7.88;5.45;;;;;;;22.12;72.80;98925.06;5092819;28;20061;-42
2022/07/10 04:52:15;;;;;;;5.70;5.10;;;;;;;22.18;72.98;98921.84;5092468;28;20086;-41
2022/07/10 04:54:42;;;;;;;6.70;5.30;;;;;;;22.26;73.08;98923.75;5092878;28;20043;-41
2022/07/10 04:57:07;;;;;;;8.60;5.53;;;;;;;22.33;73.00;98924.84;5092396;28;20290;-43
2022/07/10 04:59:33;;;;;;;7.07;5.60;;;;;;;22.41;72.55;98924.94;5092732;28;20507;-42
2022/07/10 05:01:59;;;;;;;8.05;5.22;;;;;;;22.45;71.84;98925.50;5092458;28;20051;-42
2022/07/10 05:04:25;;;;;;;9.75;5.60;;;;;;;22.31;71.20;98909.09;5074569;28;20044;-44
2022/07/10 05:06:50;;;;;;;7.75;5.95;;;;;;;22.48;71.23;98917.25;5091813;28;20036;-40
2022/07/10 05:09:19;;;;;;;6.68;5.50;;;;;;;22.50;71.54;98916.16;5074547;28;20036;-41
2022/07/10 05:11:46;;;;;;;6.35;5.10;;;;;;;22.52;71.22;98911.50;5092720;28;20490;-42
2022/07/10 05:14:12;;;;;;;6.28;5.28;;;;;;;22.56;71.20;98925.31;5091508;28;20035;-44
2022/07/10 05:16:37;;;;;;;7.65;5.15;;;;;;;22.58;70.61;98915.38;5073822;28;20504;-42
2022/07/10 05:19:03;;;;;;;6.00;5.40;;;;;;;22.61;70.40;98909.81;5092142;28;20039;-42
2022/07/10 05:21:29;;;;;;;10.00;7.22;;;;;;;22.55;70.01;98887.38;5059296;28;20064;-41
2022/07/10 05:23:55;;;;;;;14.20;7.47;;;;;;;22.68;69.44;98902.94;5071910;28;20465;-40
2022/07/10 05:26:20;;;;;;;6.75;5.70;;;;;;;22.63;69.37;98886.63;5090579;28;20135;-41
2022/07/10 05:28:46;;;;;;;8.50;6.28;;;;;;;22.74;69.24;98894.41;5091977;28;20451;-44
2022/07/10 05:31:12;;;;;;;7.65;6.30;;;;;;;22.82;68.72;98896.34;5091943;28;20058;-42
2022/07/10 05:33:40;;;;;;;11.80;7.45;;;;;;;22.89;68.25;98895.56;5091824;28;20054;-43
2022/07/10 05:36:07;;;;;;;11.43;6.17;;;;;;;22.99;68.04;98900.81;5091174;28;20127;-42
2022/07/10 05:38:33;;;;;;;6.57;5.85;;;;;;;23.11;67.85;98900.44;5092148;28;20575;-41
2022/07/10 05:40:58;;;;;;;8.70;6.43;;;;;;;23.25;68.03;98899.06;5091737;28;20119;-42
2022/07/10 05:43:25;;;;;;;10.52;6.63;;;;;;;23.42;67.38;98894.75;5091620;28;20092;-42
2022/07/10 05:45:51;;;;;;;6.63;5.97;;;;;;;23.56;66.81;98896.88;5091580;28;20031;-42
2022/07/10 05:48:17;;;;;;;8.73;6.45;;;;;;;23.61;66.22;98882.16;5073560;28;20566;-42
2022/07/10 05:50:42;;;;;;;7.35;6.55;;;;;;;23.84;65.63;98892.28;5090946;28;20051;-42
2022/07/10 05:53:08;;;;;;;8.13;5.93;;;;;;;24.00;65.49;98893.22;5091061;28;20515;-41
2022/07/10 05:55:34;;;;;;;11.35;7.75;;;;;;;23.97;65.22;98898.03;5073681;28;20043;-41
2022/07/10 05:58:00;;;;;;;8.82;6.25;;;;;;;24.06;65.21;98920.97;5091314;28;20031;-43
2022/07/10 06:00:25;;;;;;;9.68;7.45;;;;;;;24.27;64.64;98926.78;5090829;28;20051;-42
2022/07/10 06:02:53;;;;;;;8.18;6.10;;;;;;;24.53;64.12;98923.25;5054289;28;20043;-42
2022/07/10 06:05:19;;;;;;;10.00;6.85;;;;;;;24.74;63.38;98923.66;5090873;28;20055;-41
2022/07/10 06:07:45;;;;;;;7.53;6.00;;;;;;;24.83;62.75;98920.03;5090017;28;20035;-42
2022/07/10 06:10:11;;;;;;;9.05;6.68;;;;;;;24.89;62.86;98925.56;5091470;28;20162;-43
2022/07/10 06:12:37;;;;;;;10.63;6.18;;;;;;;25.00;62.45;98915.63;5091053;28;20576;-44
2022/07/10 06:15:03;;;;;;;8.77;6.22;;;;;;;25.08;62.06;98916.47;5073325;28;20065;-41
2022/07/10 06:17:29;;;;;;;8.15;6.80;;;;;;;25.20;61.50;98915.16;5089412;28;20036;-41
2022/07/10 06:19:55;;;;;;;9.52;6.30;;;;;;;25.47;61.09;98915.84;5091018;28;20044;-41
2022/07/10 06:22:30;;;;;;;22.08;6.88;;;;;;;25.71;60.18;98919.38;5090757;28;20569;-42
2022/07/10 06:24:57;;;;;;;11.90;6.70;;;;;;;25.88;59.87;98908.72;5090012;28;20069;-42
2022/07/10 06:27:23;;;;;;;8.07;6.70;;;;;;;26.05;58.80;98891.72;5091082;28;20036;-41
2022/07/10 06:29:49;;;;;;;8.15;7.05;;;;;;;26.42;58.22;98905.28;5090905;28;20043;-42
2022/07/10 06:32:15;;;;;;;11.35;6.75;;;;;;;26.62;57.54;98897.69;5071910;28;20039;-41
2022/07/10 06:34:40;;;;;;;7.68;6.10;;;;;;;26.67;57.36;98907.84;5072661;28;20052;-42
2022/07/10 06:37:06;;;;;;;10.77;7.13;;;;;;;26.49;57.40;98902.75;5093441;28;20085;-42
2022/07/10 06:39:36;;;;;;;8.55;7.50;;;;;;;26.33;57.80;98905.47;5076141;28;20475;-41
2022/07/10 06:42:03;;;;;;;9.63;6.85;;;;;;;26.26;57.77;98902.66;5086848;28;20419;-42
2022/07/10 06:44:29;;;;;;;8.93;7.15;;;;;;;26.30;56.13;98903.97;5078778;28;20397;-42
2022/07/10 06:49:41;;;;;;;9.02;6.70;;;;;;;28.39;50.35;98909.88;5075621;28;20041;-43
2022/07/10 06:52:07;;;;;;;7.65;6.35;;;;;;;28.94;48.87;98915.53;5090267;28;20036;-42
2022/07/10 06:54:33;;;;;;;10.75;6.70;;;;;;;28.80;49.03;98916.41;5089173;28;20121;-42
2022/07/10 06:56:59;;;;;;;9.05;7.38;;;;;;;28.37;48.88;98918.06;5070466;28;20500;-42
2022/07/10 06:59:27;;;;;;;10.07;7.22;;;;;;;27.95;50.08;98915.97;5075239;28;20506;-42
2022/07/10 07:01:53;;;;;;;10.57;7.13;;;;;;;27.84;50.22;98913.78;5088366;28;20149;-45
2022/07/10 07:04:18;;;;;;;8.70;6.95;;;;;;;28.21;49.48;98918.28;5087965;28;20051;-45
2022/07/10 07:06:44;;;;;;;10.02;7.10;;;;;;;28.90;48.56;98911.56;5088892;28;20534;-44
2022/07/10 07:09:11;;;;;;;13.68;6.82;;;;;;;29.75;46.38;98890.19;5088620;28;20129;-44
2022/07/10 07:11:37;;;;;;;8.85;6.97;;;;;;;30.07;46.06;98899.53;5088573;28;20047;-45
2022/07/10 07:14:03;;;;;;;8.30;6.68;;;;;;;30.11;45.06;98900.78;5089754;28;20568;-46
2022/07/10 07:16:38;;;;;;;8.05;7.00;;;;;;;30.05;44.95;98900.72;5072071;28;20063;-44
2022/07/10 07:19:06;;;;;;;9.75;7.20;;;;;;;29.98;45.19;98907.91;5087834;28;20113;-43
2022/07/10 07:24:18;;;;;;;8.93;6.85;;;;;;;29.80;45.11;98911.88;5085968;28;20812;-43
2022/07/10 07:26:46;;;;;;;15.95;8.55;;;;;;;30.07;43.74;98901.38;5088944;28;20031;-44
2022/07/10 07:29:13;;;;;;;;;;;;;;;31.52;41.57;98917.06;5088521;28;20101;-41
2022/07/10 07:31:39;;;;;;;12.55;6.80;;;;;;;33.15;38.66;98914.25;5090258;28;19919;-42
2022/07/10 07:34:06;;;;;;;8.63;6.78;;;;;;;34.11;35.55;98922.09;5071019;28;20105;-44
2022/07/10 07:36:32;;;;;;;7.88;7.07;;;;;;;33.91;36.60;98903.41;5088763;28;20169;-43
2022/07/10 07:38:58;;;;;;;7.47;6.78;;;;;;;34.77;34.47;98916.00;5091544;28;20086;-44
2022/07/10 07:41:24;;;;;;;8.90;7.28;;;;;;;35.65;33.70;98921.63;5089300;28;20036;-44
2022/07/10 07:43:50;;;;;;;10.52;7.20;;;;;;;36.59;32.35;98914.38;5089839;28;20051;-42
2022/07/10 07:46:16;;;;;;;8.75;6.95;;;;;;;36.62;30.63;98917.47;5088528;28;20028;-42
2022/07/10 07:48:42;;;;;;;10.13;6.38;;;;;;;35.59;31.70;98915.25;5091060;28;20427;-45
2022/07/10 07:51:07;;;;;;;6.03;5.38;;;;;;;34.15;32.89;98919.75;5092876;28;20167;-44
2022/07/10 07:53:33;;;;;;;7.35;4.93;;;;;;;33.50;34.03;98924.63;5073200;28;20117;-44
2022/07/10 07:55:59;;;;;;;7.85;5.75;;;;;;;32.16;35.21;98923.72;5093329;28;20047;-45
2022/07/10 07:58:25;;;;;;;9.48;5.72;;;;;;;30.85;37.61;98911.72;5075794;28;20044;-46
2022/07/10 08:00:51;;;;;;;9.23;5.97;;;;;;;30.07;38.97;98915.63;5093033;28;20039;-43
2022/07/10 08:03:17;;;;;;;8.10;5.68;;;;;;;29.26;40.36;98903.50;5075188;28;20097;-42
2022/07/10 08:05:43;;;;;;;8.23;6.00;;;;;;;29.10;41.15;98911.00;5092236;28;20123;-43
2022/07/10 08:08:09;;;;;;;8.55;5.80;;;;;;;29.14;41.66;98918.44;5092562;28;20178;-44
2022/07/10 08:10:36;;;;;;;8.15;6.13;;;;;;;28.99;41.91;98915.00;5075198;28;20533;-42
2022/07/10 08:13:03;;;;;;;6.63;5.88;;;;;;;28.59;42.61;98909.09;5074184;28;20100;-42
2022/07/10 08:15:30;;;;;;;7.88;6.03;;;;;;;28.50;43.06;98920.94;5090651;28;20503;-43
2022/07/10 08:17:58;;;;;;;7.28;6.13;;;;;;;28.54;43.42;98918.69;5086357;28;20047;-41
2022/07/10 08:20:25;;;;;;;10.48;6.85;;;;;;;28.25;43.81;98900.84;5091340;28;20122;-43
2022/07/10 08:22:55;;;;;;;6.90;6.18;;;;;;;28.20;44.13;98913.94;5064968;28;20055;-44
2022/07/10 08:25:21;;;;;;;7.28;6.28;;;;;;;28.23;44.30;98905.53;5090515;28;20132;-43
2022/07/10 08:27:48;;;;;;;9.30;6.25;;;;;;;28.33;44.39;98919.44;5093425;28;20059;-45
2022/07/10 08:30:13;;;;;;;9.23;6.60;;;;;;;28.35;44.52;98917.44;5092878;28;20044;-40
2022/07/10 08:32:40;;;;;;;11.93;6.25;;;;;;;28.36;44.84;98912.91;5058021;28;20194;-44
2022/07/10 08:35:07;;;;;;;10.85;6.38;;;;;;;28.48;44.66;98919.44;5091874;28;20048;-41
2022/07/10 08:37:43;;;;;;;9.45;6.38;;;;;;;28.59;44.31;98911.78;5090034;28;20155;-40
2022/07/10 08:40:12;;;;;;;8.45;6.45;;;;;;;28.81;44.29;98919.91;5092895;28;20047;-40
2022/07/10 08:42:39;;;;;;;8.65;6.70;;;;;;;29.06;44.38;98911.34;5092933;28;20046;-40
2022/07/10 08:45:06;;;;;;;9.00;6.50;;;;;;;29.52;43.99;98913.69;5092792;28;20044;-40
2022/07/10 08:47:35;;;;;;;8.73;6.63;;;;;;;29.98;42.73;98908.75;5073905;28;20035;-43
2022/07/10 08:50:01;;;;;;;8.48;6.50;;;;;;;30.58;42.46;98905.41;5092550;28;20054;-42
2022/07/10 08:52:37;;;;;;;9.00;6.87;;;;;;;30.95;41.50;98903.28;5058120;28;20457;-41
2022/07/10 08:55:03;;;;;;;10.57;7.28;;;;;;;31.10;39.70;98904.78;5073966;28;20043;-49
2022/07/10 08:57:31;;;;;;;10.50;6.90;;;;;;;31.48;39.76;98904.25;5092353;28;20040;-44
2022/07/10 08:59:57;;;;;;;;;;;;;;;31.96;38.78;98902.22;5092211;28;20045;-49
2022/07/10 09:02:23;;;;;;;9.10;6.78;;;;;;;31.92;38.26;98892.91;5092555;28;19926;-48
2022/07/10 09:04:48;;;;;;;7.43;6.60;;;;;;;31.90;37.51;98901.19;5091961;28;20043;-45
2022/07/10 09:07:17;;;;;;;11.32;7.28;;;;;;;31.71;38.39;98899.34;5075051;28;20044;-46
2022/07/10 09:09:57;;;;;;;9.20;6.50;;;;;;;31.51;39.14;98893.91;5057639;28;20060;-43
2022/07/10 09:12:24;;;;;;;12.57;6.65;;;;;;;31.45;39.68;98894.75;5074619;28;20075;-43
2022/07/10 09:14:52;;;;;;;11.20;6.93;;;;;;;31.86;38.51;98896.44;5072337;28;20039;-42
2022/07/10 09:17:21;;;;;;;7.50;6.80;;;;;;;32.17;37.18;98887.72;5091561;28;20036;-43
2022/07/10 09:19:48;;;;;;;9.27;7.15;;;;;;;32.09;37.17;98886.03;5092092;28;20110;-43
2022/07/10 09:22:17;;;;;;;11.32;6.82;;;;;;;31.90;38.37;98871.59;5091680;28;20549;-43
2022/07/10 09:24:45;;;;;;;8.95;6.55;;;;;;;31.75;39.14;98868.31;5074274;28;20472;-43
2022/07/10 09:27:12;;;;;;;;;;;;;;;31.57;39.21;98884.22;5092556;28;20525;-42
2022/07/10 09:29:59;;;;;;;8.93;5.90;;;;;;;31.56;38.63;98882.56;5091952;28;19949;-43
2022/07/10 09:32:26;;;;;;;7.55;5.38;;;;;;;31.56;36.63;98879.88;5092099;28;20547;-43
2022/07/10 09:37:41;;;;;;;4.60;4.20;;;;;;;31.19;35.37;98875.06;5091979;28;20040;-43
2022/07/10 09:40:08;;;;;;;6.57;4.15;;;;;;;30.99;35.80;98881.19;5091529;28;20575;-41
2022/07/10 09:42:44;;;;;;;7.72;3.95;;;;;;;31.31;35.07;98885.00;5073800;28;20064;-42
2022/07/10 09:45:12;;;;;;;6.65;4.53;;;;;;;33.14;32.60;98880.28;5091487;28;20040;-43
2022/07/10 09:47:39;;;;;;;5.05;4.35;;;;;;;35.44;30.60;98882.44;5073485;28;20051;-43
2022/07/10 09:50:19;;;;;;;8.00;4.32;;;;;;;36.48;28.34;98880.84;5091852;28;20126;-43
2022/07/10 09:52:46;;;;;;;9.00;4.82;;;;;;;36.07;28.92;98873.69;5091585;28;20473;-43
2022/07/10 09:55:16;;;;;;;7.47;4.43;;;;;;;36.11;27.96;98866.75;5091086;28;20040;-42
2022/07/10 09:57:43;;;;;;;5.15;3.92;;;;;;;36.80;26.91;98871.22;5091554;28;20173;-44
2022/07/10 10:00:10;;;;;;;4.57;4.13;;;;;;;38.06;25.92;98855.50;5056493;28;20040;-45
2022/07/10 10:02:38;;;;;;;6.07;3.92;;;;;;;38.55;25.42;98856.44;5073227;28;20135;-42
2022/07/10 10:05:05;;;;;;;4.55;3.80;;;;;;;38.42;25.13;98865.75;5090800;28;20074;-43
2022/07/10 10:07:32;;;;;;;4.40;4.00;;;;;;;38.08;25.11;98851.47;5055180;28;20150;-44
2022/07/10 10:09:58;;;;;;;4.57;4.18;;;;;;;38.73;24.90;98860.72;5068111;28;20040;-44
2022/07/10 10:12:37;;;;;;;6.57;4.07;;;;;;;39.78;23.27;98854.69;5061843;28;20051;-44
2022/07/10 10:15:05;;;;;;;7.53;4.20;;;;;;;40.35;22.56;98843.88;5073434;28;20048;-45
2022/07/10 10:17:32;;;;;;;6.72;4.63;;;;;;;41.00;22.18;98843.25;5090911;28;20039;-44
2022/07/10 10:22:45;;;;;;;5.03;4.63;;;;;;;41.66;21.42;98840.59;5091096;28;20531;-48
2022/07/10 10:25:12;;;;;;;5.18;4.47;;;;;;;42.14;20.72;98841.84;5089209;28;20181;-44
2022/07/10 10:27:38;;;;;;;;;;;;;;;42.13;20.82;98850.34;5098067;28;20032;-45
2022/07/10 10:30:04;;;;;;;5.53;4.22;;;;;;;42.43;19.82;98833.88;5072901;28;19922;-43
2022/07/10 10:32:31;;;;;;;4.90;4.50;;;;;;;42.89;19.91;98833.63;5072420;28;20122;-45
2022/07/10 10:34:58;;;;;;;4.78;4.47;;;;;;;42.82;19.84;98825.72;5090616;28;20038;-42
2022/07/10 10:37:27;;;;;;;5.40;4.90;;;;;;;42.29;20.36;98827.38;5072714;28;20062;-44
2022/07/10 10:39:56;;;;;;;4.93;4.40;;;;;;;42.84;20.42;98826.28;5090533;28;20085;-46
2022/07/10 10:42:51;;;;;;;8.95;4.55;;;;;;;44.04;19.54;98836.50;5090670;28;20573;-42
2022/07/10 10:45:30;;;;;;;5.00;4.50;;;;;;;44.18;19.50;98834.69;5063280;28;20071;-46
2022/07/10 10:48:06;;;;;;;6.00;4.70;;;;;;;44.78;18.76;98835.06;5090529;28;20043;-45
2022/07/10 10:50:42;;;;;;;8.23;4.60;;;;;;;44.72;18.06;98836.22;5072308;28;20040;-44
2022/07/10 10:53:22;;;;;;;6.80;4.20;;;;;;;44.48;18.10;98830.78;5072058;28;20047;-44
2022/07/10 10:56:00;;;;;;;7.95;4.30;;;;;;;45.05;17.49;98828.91;5089753;28;20708;-46
2022/07/10 10:58:28;;;;;;;4.45;4.15;;;;;;;45.52;17.02;98828.69;5090379;28;20059;-45
2022/07/10 11:01:04;;;;;;;5.93;3.92;;;;;;;45.10;16.92;98824.16;5072134;28;20048;-46
2022/07/10 11:03:30;;;;;;;5.18;4.18;;;;;;;44.39;16.67;98821.56;5055410;28;20067;-42
2022/07/10 11:05:56;;;;;;;5.90;4.00;;;;;;;44.33;16.92;98820.03;5071670;28;20142;-43
2022/07/10 11:08:43;;;;;;;5.20;3.22;;;;;;;44.58;17.07;98821.59;5090330;28;20070;-44
2022/07/10 11:11:31;;;;;;;6.15;4.10;;;;;;;44.79;17.63;98825.72;5089927;28;20050;-43
2022/07/10 11:14:00;;;;;;;3.85;3.55;;;;;;;43.82;17.97;98831.50;5090048;28;20507;-47
2022/07/10 11:16:26;;;;;;;7.35;3.65;;;;;;;43.52;17.74;98818.13;5089486;28;20448;-46
2022/07/10 11:18:54;;;;;;;6.32;3.30;;;;;;;44.13;17.54;98820.22;5090108;28;20097;-42
2022/07/10 11:21:25;;;;;;;8.65;3.42;;;;;;;43.97;17.32;98819.59;5089794;28;20511;-47
2022/07/10 11:24:11;;;;;;;7.68;2.70;;;;;;;42.33;18.27;98811.22;5089522;28;20144;-43
2022/07/10 11:26:43;;;;;;;3.63;2.97;;;;;;;41.42;19.03;98817.66;5054765;28;20427;-43
2022/07/10 11:29:12;;;;;;;5.55;3.20;;;;;;;42.32;18.54;98810.41;5090075;28;20090;-47
2022/07/10 11:31:44;;;;;;;4.38;3.20;;;;;;;42.88;17.43;98812.84;5072455;28;20116;-46
2022/07/10 11:34:10;;;;;;;4.00;3.25;;;;;;;42.76;17.48;98813.22;5072141;28;20035;-43
2022/07/10 11:36:39;;;;;;;6.60;2.70;;;;;;;41.61;18.92;98813.31;5089303;28;20059;-42
2022/07/10 11:39:07;;;;;;;3.28;2.90;;;;;;;39.78;20.70;98802.97;5089069;28;20551;-43
2022/07/10 11:41:34;;;;;;;5.18;3.20;;;;;;;39.87;20.77;98819.63;5089646;28;20096;-43
2022/07/10 11:44:01;;;;;;;;;;;;;;;39.52;21.16;98804.66;5090317;28;20458;-45
2022/07/10 11:46:30;;;;;;;4.80;3.00;;;;;;;39.39;21.55;98803.22;5071531;28;19916;-43